Vlore, Albania
Current Conditions -  °F | °C
As of 10:20 PM on Thursday 29 Jan 2015 (Local Time) from LGKR Reporting Station
Scattered Clouds Scattered Clouds  
Wind Chill: 48°   Ceiling: Unl
Heat Index: 48°   Visibility: 6mi
Dew Point: 45°   Wind: 0mph
Humidity: 87%   Direction: NA
Pressure: 29.65"   Gusts: NA
Location:  40.47°N, 19.49°E
Report Text: LGKR 292020Z 00000KT 9999 FEW025 SCT080 09/07 Q1004 NOSIG
Loading
Personal Weather Stations






























Interactive Weather Map New forecast layout! Learn more

10-Day Weather Forecast

Advertisements
Track Severe Weather on mobile